F/V Santimax — FJWM — position and weather

sailwx.info

Track history (hours):
 
Tides and Currents Weather Stations Pressure Air Temp Water Temp Dewpoint Dewpoint Depression Visibility Wind Speed Wind Dir Waves Ship Positions

F/V Santimax

Last reported at 2017-Sep-20 22:27 UTC. Time now 2017-Sep-21 10:37 UTC.
Position N 47°32' W 003°37'.

Length 15 m.

Type: Fishing. MMSI: 228122900.

Date/timePositionNaut miles runAvg speedWind from/ knotsBaromVisibWave heightAir tempDewpointWater temp
2017-Sep-20 22:27N 47°32' W 003°37'1 2.8
2017-Sep-20 21:59N 47°32' W 003°39'3 0.6
2017-Sep-20 17:31N 47°31' W 003°35'0 3.9
2017-Sep-20 17:24N 47°31' W 003°34'2 3.8
2017-Sep-20 17:00N 47°30' W 003°33'2 3.4
2017-Sep-20 16:29N 47°29' W 003°35'13 0.9
2017-Sep-20 02:16N 47°40' W 003°27'2 8.8
2017-Sep-20 02:00N 47°41' W 003°24'3 5.9
2017-Sep-20 01:30N 47°44' W 003°22'1 2.7
2017-Sep-20 01:00N 47°42' W 003°22'5 9.0
2017-Sep-20 00:30N 47°40' W 003°28'5 9.3
2017-Sep-19 23:59N 47°38' W 003°34'3 6.7
2017-Sep-19 23:30N 47°36' W 003°38'1 2.2
2017-Sep-19 22:57N 47°35' W 003°38'1 2.6
2017-Sep-19 22:30N 47°34' W 003°39'2 3.6
2017-Sep-19 22:00N 47°35' W 003°41'11 0.6
2017-Sep-19 02:20N 47°40' W 003°27'3 8.6
2017-Sep-19 02:00N 47°41' W 003°23'3 5.2
2017-Sep-19 01:30N 47°44' W 003°22'2 4.4
2017-Sep-19 01:00N 47°42' W 003°22'4 9.1
2017-Sep-19 00:30N 47°37' W 003°23'5 9.1
2017-Sep-19 00:00N 47°33' W 003°27'3 5.2
2017-Sep-18 23:30N 47°32' W 003°30'2 3.8
2017-Sep-18 23:00N 47°31' W 003°33'2 3.8
2017-Sep-18 22:30N 47°30' W 003°34'2 4.0
2017-Sep-18 21:55N 47°28' W 003°37'14 0.7
2017-Sep-18 02:36N 47°40' W 003°27'1 8.7
2017-Sep-18 02:29N 47°41' W 003°26'4 8.1
2017-Sep-18 02:01N 47°43' W 003°22'0 0.8
2017-Sep-18 01:30N 47°44' W 003°22'0 0.0
2017-Sep-18 01:00N 47°44' W 003°22'0 0.0
2017-Sep-18 00:30N 47°44' W 003°22'0 0.0
2017-Sep-18 00:00N 47°44' W 003°22'0 0.0
2017-Sep-17 23:30N 47°44' W 003°22'0 0.0
2017-Sep-17 22:57N 47°44' W 003°22'0 0.0
2017-Sep-17 22:30N 47°44' W 003°22'0 0.0
2017-Sep-17 22:00N 47°44' W 003°22'0 0.0
2017-Sep-17 21:30N 47°44' W 003°22'0 0.0
2017-Sep-17 21:00N 47°44' W 003°22'0 0.0
2017-Sep-17 20:30N 47°44' W 003°22'0 0.0
2017-Sep-17 20:00N 47°44' W 003°22'0 0.0
2017-Sep-17 19:30N 47°44' W 003°22'0 0.0
2017-Sep-17 19:00N 47°44' W 003°22'0 0.0
2017-Sep-17 18:30N 47°44' W 003°22'0 0.0
2017-Sep-17 18:00N 47°44' W 003°22'0 0.0
2017-Sep-17 17:30N 47°44' W 003°22'0 0.0
2017-Sep-17 17:00N 47°44' W 003°22'0 0.0
2017-Sep-17 16:30N 47°44' W 003°22'0 0.0
2017-Sep-17 16:00N 47°44' W 003°22'0 0.0
2017-Sep-17 15:30N 47°44' W 003°22'0 0.0
2017-Sep-17 15:00N 47°44' W 003°22'0 0.0
2017-Sep-17 14:30N 47°44' W 003°22'0 0.0
2017-Sep-17 14:00N 47°44' W 003°22'0 0.0
2017-Sep-17 13:30N 47°44' W 003°22'0 0.0
2017-Sep-17 13:00N 47°44' W 003°22'0 0.0
2017-Sep-17 12:30N 47°44' W 003°22'0 0.0
2017-Sep-17 12:00N 47°44' W 003°22'0 0.0
2017-Sep-17 11:30N 47°44' W 003°22'0 0.0
2017-Sep-17 11:00N 47°44' W 003°22'0 0.0
2017-Sep-17 10:30N 47°44' W 003°22'0 0.0
2017-Sep-17 10:00N 47°44' W 003°22'0 0.0
2017-Sep-17 09:30N 47°44' W 003°22'0 0.0
2017-Sep-17 09:00N 47°44' W 003°22'0 0.0
2017-Sep-17 08:30N 47°44' W 003°22'0 0.0
2017-Sep-17 08:00N 47°44' W 003°22'0 0.0
2017-Sep-17 07:30N 47°44' W 003°22'0 0.0
2017-Sep-17 07:00N 47°44' W 003°22'0 0.0
2017-Sep-17 06:30N 47°44' W 003°22'0 0.0
2017-Sep-17 06:00N 47°44' W 003°22'0 0.0
2017-Sep-17 05:30N 47°44' W 003°22'0 0.0
2017-Sep-17 05:00N 47°44' W 003°22'0 0.0
2017-Sep-17 04:30N 47°44' W 003°22'0 0.0
2017-Sep-17 04:00N 47°44' W 003°22'0 0.0
2017-Sep-17 03:30N 47°44' W 003°22'0 0.0
2017-Sep-17 03:00N 47°44' W 003°22'0 0.0
2017-Sep-17 02:30N 47°44' W 003°22'0 0.0
2017-Sep-17 02:00N 47°44' W 003°22'0 0.0
2017-Sep-17 01:30N 47°44' W 003°22'0 0.0
2017-Sep-17 01:00N 47°44' W 003°22'0 0.0
2017-Sep-17 00:30N 47°44' W 003°22'0 0.0
2017-Sep-17 00:00N 47°44' W 003°22'0 0.0
2017-Sep-16 23:30N 47°44' W 003°22'0 0.0
2017-Sep-16 23:00N 47°44' W 003°22'0 0.0
2017-Sep-16 22:30N 47°44' W 003°22'0 0.0
2017-Sep-16 22:00N 47°44' W 003°22'0 0.0
2017-Sep-16 21:30N 47°44' W 003°22'0 0.0
2017-Sep-16 21:00N 47°44' W 003°22'0 0.0
2017-Sep-16 20:30N 47°44' W 003°22'0 0.0
2017-Sep-16 20:00N 47°44' W 003°22'0 0.0
2017-Sep-16 19:30N 47°44' W 003°22'0 0.0
2017-Sep-16 19:00N 47°44' W 003°22'0 0.0
2017-Sep-16 18:30N 47°44' W 003°22'0 0.0
2017-Sep-16 18:00N 47°44' W 003°22'0 0.0
2017-Sep-16 17:30N 47°44' W 003°22'0 0.0
2017-Sep-16 17:00N 47°44' W 003°22'0 0.0
2017-Sep-16 16:30N 47°44' W 003°22'0 0.0
2017-Sep-16 16:00N 47°44' W 003°22'0 0.0
2017-Sep-16 15:30N 47°44' W 003°22'0 0.0
2017-Sep-16 15:00N 47°44' W 003°22'0 0.0
2017-Sep-16 14:30N 47°44' W 003°22'0 0.0
2017-Sep-16 14:00N 47°44' W 003°22'0 0.0
2017-Sep-16 13:30N 47°44' W 003°22'0 0.0
2017-Sep-16 13:00N 47°44' W 003°22'0 0.0
2017-Sep-16 12:30N 47°44' W 003°22'0 0.0
2017-Sep-16 12:00N 47°44' W 003°22'0 0.0
2017-Sep-16 11:30N 47°44' W 003°22'0 0.0
2017-Sep-16 11:00N 47°44' W 003°22'0 0.0
2017-Sep-16 10:30N 47°44' W 003°22'0 0.0
2017-Sep-16 10:00N 47°44' W 003°22'0 0.0
2017-Sep-16 09:30N 47°44' W 003°22'0 0.0
2017-Sep-16 09:00N 47°44' W 003°22'0 0.0
2017-Sep-16 08:30N 47°44' W 003°22'0 0.0
2017-Sep-16 08:00N 47°44' W 003°22'0 0.0
2017-Sep-16 07:30N 47°44' W 003°22'0 0.0
2017-Sep-16 07:00N 47°44' W 003°22'0 0.0
2017-Sep-16 06:30N 47°44' W 003°22'0 0.0
2017-Sep-16 06:00N 47°44' W 003°22'0 0.0
2017-Sep-16 05:30N 47°44' W 003°22'0 0.0
2017-Sep-16 05:00N 47°44' W 003°22'0 0.0
2017-Sep-16 04:30N 47°44' W 003°22'0 0.0
2017-Sep-16 04:00N 47°44' W 003°22'0 0.0
2017-Sep-16 03:30N 47°44' W 003°22'0 0.0
2017-Sep-16 03:00N 47°44' W 003°22'0 0.0
2017-Sep-16 02:30N 47°44' W 003°22'0 0.0
2017-Sep-16 02:00N 47°44' W 003°22'0 0.0
2017-Sep-16 01:30N 47°44' W 003°22'0 0.0
2017-Sep-16 01:00N 47°44' W 003°22'0 0.0
2017-Sep-16 00:30N 47°44' W 003°22'0 0.0
2017-Sep-16 00:00N 47°44' W 003°22'0 0.0
2017-Sep-15 23:30N 47°44' W 003°22'0 0.0
2017-Sep-15 23:00N 47°44' W 003°22'0 0.4
2017-Sep-15 22:30N 47°44' W 003°22'4 7.6
2017-Sep-15 22:00N 47°41' W 003°25'4 9.0
2017-Sep-15 21:30N 47°39' W 003°32'3 0.1
2017-Sep-14 03:00N 47°40' W 003°28'3 6.1
2017-Sep-14 02:30N 47°41' W 003°23'3 5.0
2017-Sep-14 02:00N 47°44' W 003°22'0 0.0
2017-Sep-14 01:30N 47°44' W 003°22'0 0.0
2017-Sep-14 01:00N 47°44' W 003°22'0 0.0
2017-Sep-14 00:30N 47°44' W 003°22'0 0.0
2017-Sep-14 00:00N 47°44' W 003°22'0 0.0
2017-Sep-13 23:30N 47°44' W 003°22'0 0.0
2017-Sep-13 23:00N 47°44' W 003°22'0 0.0
2017-Sep-13 22:30N 47°44' W 003°22'0 0.0
2017-Sep-13 22:00N 47°44' W 003°22'0 0.0
2017-Sep-13 21:30N 47°44' W 003°22'0 0.0
2017-Sep-13 21:00N 47°44' W 003°22'0 0.0
2017-Sep-13 20:30N 47°44' W 003°22'0 0.0
2017-Sep-13 20:00N 47°44' W 003°22'0 0.0
2017-Sep-13 19:30N 47°44' W 003°22'0 0.0
2017-Sep-13 19:00N 47°44' W 003°22'0 0.0
2017-Sep-13 18:30N 47°44' W 003°22'0 0.0
2017-Sep-13 18:00N 47°44' W 003°22'0 0.0
2017-Sep-13 17:30N 47°44' W 003°22'0 0.0
2017-Sep-13 17:00N 47°44' W 003°22'0 0.0
2017-Sep-13 16:30N 47°44' W 003°22'0 0.0
2017-Sep-13 15:57N 47°44' W 003°22'0 0.0
2017-Sep-13 15:30N 47°44' W 003°22'0 0.0
2017-Sep-13 15:00N 47°44' W 003°22'0 0.0
2017-Sep-13 14:30N 47°44' W 003°22'0 0.0
2017-Sep-13 14:00N 47°44' W 003°22'0 0.0
2017-Sep-13 13:30N 47°44' W 003°22'0 0.0
2017-Sep-13 13:00N 47°44' W 003°22'0 0.0
2017-Sep-13 12:30N 47°44' W 003°22'0 0.0
2017-Sep-13 12:00N 47°44' W 003°22'0 0.0
2017-Sep-13 11:30N 47°44' W 003°22'0 0.0
2017-Sep-13 11:00N 47°44' W 003°22'0 0.0
2017-Sep-13 10:30N 47°44' W 003°22'0 0.0
2017-Sep-13 10:00N 47°44' W 003°22'0 0.0
2017-Sep-13 09:30N 47°44' W 003°22'0 0.0
2017-Sep-13 09:00N 47°44' W 003°22'0 0.0
2017-Sep-13 08:30N 47°44' W 003°22'0 0.0
2017-Sep-13 08:00N 47°44' W 003°22'0 0.0
2017-Sep-13 07:30N 47°44' W 003°22'0 0.0
2017-Sep-13 07:00N 47°44' W 003°22'0 0.0
2017-Sep-13 06:30N 47°44' W 003°22'0 0.0
2017-Sep-13 06:00N 47°44' W 003°22'0 0.0
2017-Sep-13 05:30N 47°44' W 003°22'0 0.0
2017-Sep-13 05:00N 47°44' W 003°22'0 0.0
2017-Sep-13 04:30N 47°44' W 003°22'0 0.0
2017-Sep-13 04:00N 47°44' W 003°22'0 0.0
2017-Sep-13 03:30N 47°44' W 003°22'0 0.0
2017-Sep-13 03:00N 47°44' W 003°22'0 0.0
2017-Sep-13 02:30N 47°44' W 003°22'0 0.0
2017-Sep-13 02:00N 47°44' W 003°22'0 0.0
2017-Sep-13 01:30N 47°44' W 003°22'0 0.0
2017-Sep-13 01:00N 47°44' W 003°22'0 0.0
2017-Sep-13 00:30N 47°44' W 003°22'0 0.1
2017-Sep-12 23:58N 47°44' W 003°22'0 0.0
2017-Sep-12 23:28N 47°44' W 003°22'0 0.0
2017-Sep-12 22:58N 47°44' W 003°22'0 0.0
2017-Sep-12 22:28N 47°44' W 003°22'0 0.0
2017-Sep-12 21:58N 47°44' W 003°22'1 2.8
2017-Sep-12 21:30N 47°42' W 003°22'3 6.7
2017-Sep-12 21:00N 47°41' W 003°26'4 7.4
2017-Sep-12 20:28N 47°41' W 003°32'3 0.2
2017-Sep-12 03:50N 47°40' W 003°28'3 7.9
2017-Sep-12 03:30N 47°41' W 003°24'3 5.8
2017-Sep-12 02:58N 47°44' W 003°22'0 0.0
2017-Sep-12 02:28N 47°44' W 003°22'0 0.0
2017-Sep-12 01:58N 47°44' W 003°22'0 0.0
2017-Sep-12 01:28N 47°44' W 003°22'0 0.0
2017-Sep-12 00:58N 47°44' W 003°22'0 0.0
2017-Sep-12 00:28N 47°44' W 003°22'0 0.0
2017-Sep-11 23:58N 47°44' W 003°22'0 0.0
2017-Sep-11 23:28N 47°44' W 003°22'0 0.0
2017-Sep-11 22:58N 47°44' W 003°22'0 0.0
2017-Sep-11 22:28N 47°44' W 003°22'0 0.0
2017-Sep-11 21:58N 47°44' W 003°22'0 0.0
2017-Sep-11 21:28N 47°44' W 003°22'0 0.0
2017-Sep-11 20:58N 47°44' W 003°22'0 0.0
2017-Sep-11 20:28N 47°44' W 003°22'0 0.0
2017-Sep-11 19:58N 47°44' W 003°22'0 0.0
2017-Sep-11 19:28N 47°44' W 003°22'0 0.0
2017-Sep-11 18:58N 47°44' W 003°22'0 0.0
2017-Sep-11 18:28N 47°44' W 003°22'0 0.0
2017-Sep-11 17:58N 47°44' W 003°22'0 0.0
2017-Sep-11 17:28N 47°44' W 003°22'0 0.0
2017-Sep-11 16:55N 47°44' W 003°22'0 0.0
2017-Sep-11 16:28N 47°44' W 003°22'0 0.0
2017-Sep-11 15:58N 47°44' W 003°22'0 0.0
2017-Sep-11 15:28N 47°44' W 003°22'0 0.0
2017-Sep-11 14:58N 47°44' W 003°22'0 0.0
2017-Sep-11 14:28N 47°44' W 003°22'0 0.0
2017-Sep-11 13:58N 47°44' W 003°22'0 0.0
2017-Sep-11 13:25N 47°44' W 003°22'0 0.0
2017-Sep-11 12:58N 47°44' W 003°22'0 0.0
2017-Sep-11 12:28N 47°44' W 003°22'0 0.0
2017-Sep-11 11:58N 47°44' W 003°22'0 0.0
2017-Sep-11 11:28N 47°44' W 003°22'0 0.0
2017-Sep-11 10:58N 47°44' W 003°22'0 0.0
2017-Sep-11 10:28N 47°44' W 003°22'0 0.0
2017-Sep-11 09:58N 47°44' W 003°22'0 0.0
2017-Sep-11 09:28N 47°44' W 003°22'0 0.0
2017-Sep-11 08:58N 47°44' W 003°22'0 0.0
2017-Sep-11 08:28N 47°44' W 003°22'0 0.0
2017-Sep-11 07:58N 47°44' W 003°22'0 0.0
2017-Sep-11 07:28N 47°44' W 003°22'0 0.0
2017-Sep-11 06:58N 47°44' W 003°22'0 0.0
2017-Sep-11 06:28N 47°44' W 003°22'0 0.0
2017-Sep-11 05:58N 47°44' W 003°22'0 0.0
2017-Sep-11 05:28N 47°44' W 003°22'0 0.0
2017-Sep-11 04:58N 47°44' W 003°22'0 0.0
2017-Sep-11 04:28N 47°44' W 003°22'0 0.0
2017-Sep-11 03:58N 47°44' W 003°22'0 0.0
2017-Sep-11 03:28N 47°44' W 003°22'0 0.0
2017-Sep-11 02:58N 47°44' W 003°22'0 0.0
2017-Sep-11 02:28N 47°44' W 003°22'0 0.0
2017-Sep-11 01:58N 47°44' W 003°22'0 0.0
2017-Sep-11 01:28N 47°44' W 003°22'0 0.0
2017-Sep-11 00:58N 47°44' W 003°22'0 0.0
2017-Sep-11 00:28N 47°44' W 003°22'0 0.0
2017-Sep-10 23:58N 47°44' W 003°22'0 0.0
2017-Sep-10 23:28N 47°44' W 003°22'0 0.0
2017-Sep-10 22:58N 47°44' W 003°22'0 0.0
2017-Sep-10 22:28N 47°44' W 003°22'  
Track history (hours):
 
Tides and Currents Weather Stations Pressure Air Temp Water Temp Dewpoint Dewpoint Depression Visibility Wind Speed Wind Dir Waves Ship Positions

F/V Santimax

Last reported at 2017-Sep-20 22:27 UTC. Time now 2017-Sep-21 10:37 UTC.
Position N 47°32' W 003°37'.

Length 15 m.

Type: Fishing. MMSI: 228122900.

Date/timePositionNaut miles runAvg speedWind from/ knotsBaromVisibWave heightAir tempDewpointWater temp
2017-Sep-20 22:27N 47°32' W 003°37'1 2.8
2017-Sep-20 21:59N 47°32' W 003°39'3 0.6
2017-Sep-20 17:31N 47°31' W 003°35'0 3.9
2017-Sep-20 17:24N 47°31' W 003°34'2 3.8
2017-Sep-20 17:00N 47°30' W 003°33'2 3.4
2017-Sep-20 16:29N 47°29' W 003°35'13 0.9
2017-Sep-20 02:16N 47°40' W 003°27'2 8.8
2017-Sep-20 02:00N 47°41' W 003°24'3 5.9
2017-Sep-20 01:30N 47°44' W 003°22'1 2.7
2017-Sep-20 01:00N 47°42' W 003°22'5 9.0
2017-Sep-20 00:30N 47°40' W 003°28'5 9.3
2017-Sep-19 23:59N 47°38' W 003°34'3 6.7
2017-Sep-19 23:30N 47°36' W 003°38'1 2.2
2017-Sep-19 22:57N 47°35' W 003°38'1 2.6
2017-Sep-19 22:30N 47°34' W 003°39'2 3.6
2017-Sep-19 22:00N 47°35' W 003°41'11 0.6
2017-Sep-19 02:20N 47°40' W 003°27'3 8.6
2017-Sep-19 02:00N 47°41' W 003°23'3 5.2
2017-Sep-19 01:30N 47°44' W 003°22'2 4.4
2017-Sep-19 01:00N 47°42' W 003°22'4 9.1
2017-Sep-19 00:30N 47°37' W 003°23'5 9.1
2017-Sep-19 00:00N 47°33' W 003°27'3 5.2
2017-Sep-18 23:30N 47°32' W 003°30'2 3.8
2017-Sep-18 23:00N 47°31' W 003°33'2 3.8
2017-Sep-18 22:30N 47°30' W 003°34'2 4.0
2017-Sep-18 21:55N 47°28' W 003°37'14 0.7
2017-Sep-18 02:36N 47°40' W 003°27'1 8.7
2017-Sep-18 02:29N 47°41' W 003°26'4 8.1
2017-Sep-18 02:01N 47°43' W 003°22'0 0.8
2017-Sep-18 01:30N 47°44' W 003°22'0 0.0
2017-Sep-18 01:00N 47°44' W 003°22'0 0.0
2017-Sep-18 00:30N 47°44' W 003°22'0 0.0
2017-Sep-18 00:00N 47°44' W 003°22'0 0.0
2017-Sep-17 23:30N 47°44' W 003°22'0 0.0
2017-Sep-17 22:57N 47°44' W 003°22'0 0.0
2017-Sep-17 22:30N 47°44' W 003°22'0 0.0
2017-Sep-17 22:00N 47°44' W 003°22'0 0.0
2017-Sep-17 21:30N 47°44' W 003°22'0 0.0
2017-Sep-17 21:00N 47°44' W 003°22'0 0.0
2017-Sep-17 20:30N 47°44' W 003°22'0 0.0
2017-Sep-17 20:00N 47°44' W 003°22'0 0.0
2017-Sep-17 19:30N 47°44' W 003°22'0 0.0
2017-Sep-17 19:00N 47°44' W 003°22'0 0.0
2017-Sep-17 18:30N 47°44' W 003°22'0 0.0
2017-Sep-17 18:00N 47°44' W 003°22'0 0.0
2017-Sep-17 17:30N 47°44' W 003°22'0 0.0
2017-Sep-17 17:00N 47°44' W 003°22'0 0.0
2017-Sep-17 16:30N 47°44' W 003°22'0 0.0
2017-Sep-17 16:00N 47°44' W 003°22'0 0.0
2017-Sep-17 15:30N 47°44' W 003°22'0 0.0
2017-Sep-17 15:00N 47°44' W 003°22'0 0.0
2017-Sep-17 14:30N 47°44' W 003°22'0 0.0
2017-Sep-17 14:00N 47°44' W 003°22'0 0.0
2017-Sep-17 13:30N 47°44' W 003°22'0 0.0
2017-Sep-17 13:00N 47°44' W 003°22'0 0.0
2017-Sep-17 12:30N 47°44' W 003°22'0 0.0
2017-Sep-17 12:00N 47°44' W 003°22'0 0.0
2017-Sep-17 11:30N 47°44' W 003°22'0 0.0
2017-Sep-17 11:00N 47°44' W 003°22'0 0.0
2017-Sep-17 10:30N 47°44' W 003°22'0 0.0
2017-Sep-17 10:00N 47°44' W 003°22'0 0.0
2017-Sep-17 09:30N 47°44' W 003°22'0 0.0
2017-Sep-17 09:00N 47°44' W 003°22'0 0.0
2017-Sep-17 08:30N 47°44' W 003°22'0 0.0
2017-Sep-17 08:00N 47°44' W 003°22'0 0.0
2017-Sep-17 07:30N 47°44' W 003°22'0 0.0
2017-Sep-17 07:00N 47°44' W 003°22'0 0.0
2017-Sep-17 06:30N 47°44' W 003°22'0 0.0
2017-Sep-17 06:00N 47°44' W 003°22'0 0.0
2017-Sep-17 05:30N 47°44' W 003°22'0 0.0
2017-Sep-17 05:00N 47°44' W 003°22'0 0.0
2017-Sep-17 04:30N 47°44' W 003°22'0 0.0
2017-Sep-17 04:00N 47°44' W 003°22'0 0.0
2017-Sep-17 03:30N 47°44' W 003°22'0 0.0
2017-Sep-17 03:00N 47°44' W 003°22'0 0.0
2017-Sep-17 02:30N 47°44' W 003°22'0 0.0
2017-Sep-17 02:00N 47°44' W 003°22'0 0.0
2017-Sep-17 01:30N 47°44' W 003°22'0 0.0
2017-Sep-17 01:00N 47°44' W 003°22'0 0.0
2017-Sep-17 00:30N 47°44' W 003°22'0 0.0
2017-Sep-17 00:00N 47°44' W 003°22'0 0.0
2017-Sep-16 23:30N 47°44' W 003°22'0 0.0
2017-Sep-16 23:00N 47°44' W 003°22'0 0.0
2017-Sep-16 22:30N 47°44' W 003°22'0 0.0
2017-Sep-16 22:00N 47°44' W 003°22'0 0.0
2017-Sep-16 21:30N 47°44' W 003°22'0 0.0
2017-Sep-16 21:00N 47°44' W 003°22'0 0.0
2017-Sep-16 20:30N 47°44' W 003°22'0 0.0
2017-Sep-16 20:00N 47°44' W 003°22'0 0.0
2017-Sep-16 19:30N 47°44' W 003°22'0 0.0
2017-Sep-16 19:00N 47°44' W 003°22'0 0.0
2017-Sep-16 18:30N 47°44' W 003°22'0 0.0
2017-Sep-16 18:00N 47°44' W 003°22'0 0.0
2017-Sep-16 17:30N 47°44' W 003°22'0 0.0
2017-Sep-16 17:00N 47°44' W 003°22'0 0.0
2017-Sep-16 16:30N 47°44' W 003°22'0 0.0
2017-Sep-16 16:00N 47°44' W 003°22'0 0.0
2017-Sep-16 15:30N 47°44' W 003°22'0 0.0
2017-Sep-16 15:00N 47°44' W 003°22'0 0.0
2017-Sep-16 14:30N 47°44' W 003°22'0 0.0
2017-Sep-16 14:00N 47°44' W 003°22'0 0.0
2017-Sep-16 13:30N 47°44' W 003°22'0 0.0
2017-Sep-16 13:00N 47°44' W 003°22'0 0.0
2017-Sep-16 12:30N 47°44' W 003°22'0 0.0
2017-Sep-16 12:00N 47°44' W 003°22'0 0.0
2017-Sep-16 11:30N 47°44' W 003°22'0 0.0
2017-Sep-16 11:00N 47°44' W 003°22'0 0.0
2017-Sep-16 10:30N 47°44' W 003°22'0 0.0
2017-Sep-16 10:00N 47°44' W 003°22'0 0.0
2017-Sep-16 09:30N 47°44' W 003°22'0 0.0
2017-Sep-16 09:00N 47°44' W 003°22'0 0.0
2017-Sep-16 08:30N 47°44' W 003°22'0 0.0
2017-Sep-16 08:00N 47°44' W 003°22'0 0.0
2017-Sep-16 07:30N 47°44' W 003°22'0 0.0
2017-Sep-16 07:00N 47°44' W 003°22'0 0.0
2017-Sep-16 06:30N 47°44' W 003°22'0 0.0
2017-Sep-16 06:00N 47°44' W 003°22'0 0.0
2017-Sep-16 05:30N 47°44' W 003°22'0 0.0
2017-Sep-16 05:00N 47°44' W 003°22'0 0.0
2017-Sep-16 04:30N 47°44' W 003°22'0 0.0
2017-Sep-16 04:00N 47°44' W 003°22'0 0.0
2017-Sep-16 03:30N 47°44' W 003°22'0 0.0
2017-Sep-16 03:00N 47°44' W 003°22'0 0.0
2017-Sep-16 02:30N 47°44' W 003°22'0 0.0
2017-Sep-16 02:00N 47°44' W 003°22'0 0.0
2017-Sep-16 01:30N 47°44' W 003°22'0 0.0
2017-Sep-16 01:00N 47°44' W 003°22'0 0.0
2017-Sep-16 00:30N 47°44' W 003°22'0 0.0
2017-Sep-16 00:00N 47°44' W 003°22'0 0.0
2017-Sep-15 23:30N 47°44' W 003°22'0 0.0
2017-Sep-15 23:00N 47°44' W 003°22'0 0.4
2017-Sep-15 22:30N 47°44' W 003°22'4 7.6
2017-Sep-15 22:00N 47°41' W 003°25'4 9.0
2017-Sep-15 21:30N 47°39' W 003°32'3 0.1
2017-Sep-14 03:00N 47°40' W 003°28'3 6.1
2017-Sep-14 02:30N 47°41' W 003°23'3 5.0
2017-Sep-14 02:00N 47°44' W 003°22'0 0.0
2017-Sep-14 01:30N 47°44' W 003°22'0 0.0
2017-Sep-14 01:00N 47°44' W 003°22'0 0.0
2017-Sep-14 00:30N 47°44' W 003°22'0 0.0
2017-Sep-14 00:00N 47°44' W 003°22'0 0.0
2017-Sep-13 23:30N 47°44' W 003°22'0 0.0
2017-Sep-13 23:00N 47°44' W 003°22'0 0.0
2017-Sep-13 22:30N 47°44' W 003°22'0 0.0
2017-Sep-13 22:00N 47°44' W 003°22'0 0.0
2017-Sep-13 21:30N 47°44' W 003°22'0 0.0
2017-Sep-13 21:00N 47°44' W 003°22'0 0.0
2017-Sep-13 20:30N 47°44' W 003°22'0 0.0
2017-Sep-13 20:00N 47°44' W 003°22'0 0.0
2017-Sep-13 19:30N 47°44' W 003°22'0 0.0
2017-Sep-13 19:00N 47°44' W 003°22'0 0.0
2017-Sep-13 18:30N 47°44' W 003°22'0 0.0
2017-Sep-13 18:00N 47°44' W 003°22'0 0.0
2017-Sep-13 17:30N 47°44' W 003°22'0 0.0
2017-Sep-13 17:00N 47°44' W 003°22'0 0.0
2017-Sep-13 16:30N 47°44' W 003°22'0 0.0
2017-Sep-13 15:57N 47°44' W 003°22'0 0.0
2017-Sep-13 15:30N 47°44' W 003°22'0 0.0
2017-Sep-13 15:00N 47°44' W 003°22'0 0.0
2017-Sep-13 14:30N 47°44' W 003°22'0 0.0
2017-Sep-13 14:00N 47°44' W 003°22'0 0.0
2017-Sep-13 13:30N 47°44' W 003°22'0 0.0
2017-Sep-13 13:00N 47°44' W 003°22'0 0.0
2017-Sep-13 12:30N 47°44' W 003°22'0 0.0
2017-Sep-13 12:00N 47°44' W 003°22'0 0.0
2017-Sep-13 11:30N 47°44' W 003°22'0 0.0
2017-Sep-13 11:00N 47°44' W 003°22'0 0.0
2017-Sep-13 10:30N 47°44' W 003°22'0 0.0
2017-Sep-13 10:00N 47°44' W 003°22'0 0.0
2017-Sep-13 09:30N 47°44' W 003°22'0 0.0
2017-Sep-13 09:00N 47°44' W 003°22'0 0.0
2017-Sep-13 08:30N 47°44' W 003°22'0 0.0
2017-Sep-13 08:00N 47°44' W 003°22'0 0.0
2017-Sep-13 07:30N 47°44' W 003°22'0 0.0
2017-Sep-13 07:00N 47°44' W 003°22'0 0.0
2017-Sep-13 06:30N 47°44' W 003°22'0 0.0
2017-Sep-13 06:00N 47°44' W 003°22'0 0.0
2017-Sep-13 05:30N 47°44' W 003°22'0 0.0
2017-Sep-13 05:00N 47°44' W 003°22'0 0.0
2017-Sep-13 04:30N 47°44' W 003°22'0 0.0
2017-Sep-13 04:00N 47°44' W 003°22'0 0.0
2017-Sep-13 03:30N 47°44' W 003°22'0 0.0
2017-Sep-13 03:00N 47°44' W 003°22'0 0.0
2017-Sep-13 02:30N 47°44' W 003°22'0 0.0
2017-Sep-13 02:00N 47°44' W 003°22'0 0.0
2017-Sep-13 01:30N 47°44' W 003°22'0 0.0
2017-Sep-13 01:00N 47°44' W 003°22'0 0.0
2017-Sep-13 00:30N 47°44' W 003°22'0 0.1
2017-Sep-12 23:58N 47°44' W 003°22'0 0.0
2017-Sep-12 23:28N 47°44' W 003°22'0 0.0
2017-Sep-12 22:58N 47°44' W 003°22'0 0.0
2017-Sep-12 22:28N 47°44' W 003°22'0 0.0
2017-Sep-12 21:58N 47°44' W 003°22'1 2.8
2017-Sep-12 21:30N 47°42' W 003°22'3 6.7
2017-Sep-12 21:00N 47°41' W 003°26'4 7.4
2017-Sep-12 20:28N 47°41' W 003°32'3 0.2
2017-Sep-12 03:50N 47°40' W 003°28'3 7.9
2017-Sep-12 03:30N 47°41' W 003°24'3 5.8
2017-Sep-12 02:58N 47°44' W 003°22'0 0.0
2017-Sep-12 02:28N 47°44' W 003°22'0 0.0
2017-Sep-12 01:58N 47°44' W 003°22'0 0.0
2017-Sep-12 01:28N 47°44' W 003°22'0 0.0
2017-Sep-12 00:58N 47°44' W 003°22'0 0.0
2017-Sep-12 00:28N 47°44' W 003°22'0 0.0
2017-Sep-11 23:58N 47°44' W 003°22'0 0.0
2017-Sep-11 23:28N 47°44' W 003°22'0 0.0
2017-Sep-11 22:58N 47°44' W 003°22'0 0.0
2017-Sep-11 22:28N 47°44' W 003°22'0 0.0
2017-Sep-11 21:58N 47°44' W 003°22'0 0.0
2017-Sep-11 21:28N 47°44' W 003°22'0 0.0
2017-Sep-11 20:58N 47°44' W 003°22'0 0.0
2017-Sep-11 20:28N 47°44' W 003°22'0 0.0
2017-Sep-11 19:58N 47°44' W 003°22'0 0.0
2017-Sep-11 19:28N 47°44' W 003°22'0 0.0
2017-Sep-11 18:58N 47°44' W 003°22'0 0.0
2017-Sep-11 18:28N 47°44' W 003°22'0 0.0
2017-Sep-11 17:58N 47°44' W 003°22'0 0.0
2017-Sep-11 17:28N 47°44' W 003°22'0 0.0
2017-Sep-11 16:55N 47°44' W 003°22'0 0.0
2017-Sep-11 16:28N 47°44' W 003°22'0 0.0
2017-Sep-11 15:58N 47°44' W 003°22'0 0.0
2017-Sep-11 15:28N 47°44' W 003°22'0 0.0
2017-Sep-11 14:58N 47°44' W 003°22'0 0.0
2017-Sep-11 14:28N 47°44' W 003°22'0 0.0
2017-Sep-11 13:58N 47°44' W 003°22'0 0.0
2017-Sep-11 13:25N 47°44' W 003°22'0 0.0
2017-Sep-11 12:58N 47°44' W 003°22'0 0.0
2017-Sep-11 12:28N 47°44' W 003°22'0 0.0
2017-Sep-11 11:58N 47°44' W 003°22'0 0.0
2017-Sep-11 11:28N 47°44' W 003°22'0 0.0
2017-Sep-11 10:58N 47°44' W 003°22'0 0.0
2017-Sep-11 10:28N 47°44' W 003°22'0 0.0
2017-Sep-11 09:58N 47°44' W 003°22'0 0.0
2017-Sep-11 09:28N 47°44' W 003°22'0 0.0
2017-Sep-11 08:58N 47°44' W 003°22'0 0.0
2017-Sep-11 08:28N 47°44' W 003°22'0 0.0
2017-Sep-11 07:58N 47°44' W 003°22'0 0.0
2017-Sep-11 07:28N 47°44' W 003°22'0 0.0
2017-Sep-11 06:58N 47°44' W 003°22'0 0.0
2017-Sep-11 06:28N 47°44' W 003°22'0 0.0
2017-Sep-11 05:58N 47°44' W 003°22'0 0.0
2017-Sep-11 05:28N 47°44' W 003°22'0 0.0
2017-Sep-11 04:58N 47°44' W 003°22'0 0.0
2017-Sep-11 04:28N 47°44' W 003°22'0 0.0
2017-Sep-11 03:58N 47°44' W 003°22'0 0.0
2017-Sep-11 03:28N 47°44' W 003°22'0 0.0
2017-Sep-11 02:58N 47°44' W 003°22'0 0.0
2017-Sep-11 02:28N 47°44' W 003°22'0 0.0
2017-Sep-11 01:58N 47°44' W 003°22'0 0.0
2017-Sep-11 01:28N 47°44' W 003°22'0 0.0
2017-Sep-11 00:58N 47°44' W 003°22'0 0.0
2017-Sep-11 00:28N 47°44' W 003°22'0 0.0
2017-Sep-10 23:58N 47°44' W 003°22'0 0.0
2017-Sep-10 23:28N 47°44' W 003°22'0 0.0
2017-Sep-10 22:58N 47°44' W 003°22'0 0.0
2017-Sep-10 22:28N 47°44' W 003°22'  

Dump ship's entire track history